Archiv-/Tagesdaten

--Timestamp---	Temp	Chill	HIndex	Humid	Dewpt	Wind	HiWind	WindDir	Rain	Barom	        Solar	ET	UV
--------------	----	-----	------	-----	-----	----	------	-------	----	-----	        -----	--	--
20090312 00:05	0.4	0.4	0.4	93	-0.6	3	6	225	0.00	1025.537	0	0.000	0
20090312 00:10	0.5	0.5	0.5	92	-0.6	5	10	247	0.00	1025.469	0	0.000	0
20090312 00:15	0.6	0.6	0.6	93	-0.4	5	10	270	0.00	1025.469	0	0.000	0
20090312 00:20	0.7	0.7	0.7	92	-0.5	5	10	247	0.00	1025.469	0	0.000	0
20090312 00:25	0.7	0.7	0.7	92	-0.5	5	11	270	0.00	1025.469	0	0.000	0
20090312 00:30	0.7	0.7	0.7	92	-0.4	5	8	247	0.00	1025.367	0	0.000	0
20090312 00:35	0.8	-1.3	0.8	92	-0.4	6	10	247	0.00	1025.334	0	0.000	0
20090312 00:40	0.8	0.8	0.8	92	-0.4	5	10	247	0.00	1025.367	0	0.000	0
20090312 00:45	0.8	0.8	0.8	92	-0.4	5	10	247	0.00	1025.401	0	0.000	0
20090312 00:50	0.8	0.8	0.8	91	-0.5	5	8	247	0.00	1025.435	0	0.000	0
20090312 00:55	0.9	0.9	0.9	91	-0.4	5	10	247	0.00	1025.435	0	0.000	0
20090312 01:00	0.9	-1.2	0.9	91	-0.4	6	11	247	0.00	1025.435	0	0.000	0
20090312 01:05	0.9	-1.1	0.9	91	-0.4	6	16	247	0.00	1025.469	0	0.000	0
20090312 01:10	0.9	0.9	0.9	91	-0.4	5	10	270	0.00	1025.503	0	0.000	0
20090312 01:15	0.9	-1.1	0.9	91	-0.4	6	18	247	0.00	1025.469	0	0.000	0
20090312 01:20	1.0	-1.6	1.0	91	-0.3	8	18	247	0.00	1025.503	0	0.000	0
20090312 01:25	1.0	-1.0	1.0	90	-0.5	6	18	247	0.00	1025.537	0	0.000	0
20090312 01:30	1.1	-1.0	1.1	90	-0.4	6	13	270	0.00	1025.503	0	0.000	0
20090312 01:35	1.1	-1.0	1.1	90	-0.4	6	14	247	0.00	1025.503	0	0.000	0
20090312 01:40	1.1	-1.0	1.1	90	-0.4	6	14	247	0.00	1025.503	0	0.000	0
20090312 01:45	1.1	-1.5	1.1	90	-0.4	8	18	247	0.00	1025.503	0	0.000	0
20090312 01:50	1.0	-1.0	1.0	90	-0.5	6	14	247	0.00	1025.435	0	0.000	0
20090312 01:55	1.1	-1.0	1.1	90	-0.4	6	13	247	0.00	1025.469	0	0.000	0
20090312 02:00	1.1	-1.5	1.1	90	-0.4	8	18	247	0.00	1025.503	0	0.000	0
20090312 02:05	1.1	-1.0	1.1	90	-0.4	6	11	270	0.00	1025.672	0	0.000	0
20090312 02:10	1.1	-1.0	1.1	90	-0.4	6	13	247	0.00	1025.638	0	0.000	0
20090312 02:15	1.1	-1.0	1.1	90	-0.4	6	14	247	0.00	1025.706	0	0.000	0
20090312 02:20	1.1	-1.0	1.1	90	-0.4	6	14	247	0.00	1025.638	0	0.000	0
20090312 02:25	1.1	-1.5	1.1	90	-0.4	8	16	247	0.00	1025.638	0	0.000	0
20090312 02:30	1.1	-1.5	1.1	90	-0.4	8	16	247	0.00	1025.571	0	0.000	0
20090312 02:35	1.0	-1.0	1.0	90	-0.5	6	11	270	0.00	1025.604	0	0.000	0
20090312 02:40	1.0	-1.6	1.0	90	-0.5	8	18	247	0.00	1025.604	0	0.000	0
20090312 02:45	1.1	-1.5	1.1	90	-0.4	8	16	247	0.00	1025.571	0	0.000	0
20090312 02:50	1.1	-1.9	1.1	90	-0.4	10	16	247	0.00	1025.571	0	0.000	0
20090312 02:55	1.0	-2.0	1.0	96	0.4	10	16	247	0.00	1025.571	0	0.000	0
20090312 03:00	1.0	-1.6	1.0	96	0.4	8	13	247	0.00	1025.503	0	0.000	0
20090312 03:05	0.9	-1.1	0.9	90	-0.5	6	14	247	0.00	1025.571	0	0.000	0
20090312 03:10	0.9	-1.6	0.9	90	-0.5	8	21	247	0.00	1025.537	0	0.000	0
20090312 03:15	0.9	-1.1	0.9	90	-0.5	6	14	247	0.00	1025.537	0	0.000	0
20090312 03:20	0.9	-1.7	0.9	90	-0.6	8	19	247	0.00	1025.503	0	0.000	0
20090312 03:25	0.9	-1.2	0.9	90	-0.6	6	14	247	0.00	1025.401	0	0.000	0
20090312 03:30	0.8	-1.2	0.8	90	-0.6	6	19	247	0.00	1025.401	0	0.000	0
20090312 03:35	0.8	-1.2	0.8	90	-0.6	6	11	247	0.00	1025.401	0	0.000	0
20090312 03:40	0.8	-1.2	0.8	89	-0.8	6	14	247	0.00	1025.367	0	0.000	0
20090312 03:45	0.8	-1.2	0.8	89	-0.8	6	14	247	0.00	1025.367	0	0.000	0
20090312 03:50	0.8	0.8	0.8	89	-0.8	5	11	247	0.00	1025.401	0	0.000	0
20090312 03:55	0.8	0.8	0.8	89	-0.8	5	8	247	0.00	1025.300	0	0.000	0
20090312 04:00	0.8	0.8	0.8	89	-0.8	5	11	247	0.00	1025.300	0	0.000	0
20090312 04:05	0.8	-1.2	0.8	89	-0.8	6	13	247	0.00	1025.164	0	0.000	0
20090312 04:10	0.8	0.8	0.8	89	-0.8	5	14	247	0.00	1025.130	0	0.000	0
20090312 04:15	0.8	0.8	0.8	89	-0.8	5	11	247	0.00	1025.232	0	0.000	0
20090312 04:20	0.8	0.8	0.8	89	-0.8	5	8	247	0.00	1025.266	0	0.000	0
20090312 04:25	0.8	0.8	0.8	89	-0.8	5	10	247	0.00	1025.266	0	0.000	0
20090312 04:30	0.8	0.8	0.8	89	-0.8	5	11	247	0.00	1025.300	0	0.000	0
20090312 04:35	0.8	-1.3	0.8	89	-0.8	6	19	247	0.00	1025.232	0	0.000	0
20090312 04:40	0.8	-1.8	0.8	89	-0.8	8	18	247	0.00	1025.097	0	0.000	0
20090312 04:45	0.9	-1.7	0.9	89	-0.7	8	19	247	0.00	1025.063	0	0.000	0
20090312 04:50	0.9	-1.2	0.9	88	-0.9	6	11	247	0.00	1025.097	0	0.000	0
20090312 04:55	0.9	-1.2	0.9	88	-0.9	6	14	247	0.00	1025.097	0	0.000	0
20090312 05:00	0.9	-1.2	0.9	88	-0.9	6	10	247	0.00	1025.097	0	0.000	0
20090312 05:05	0.8	-1.2	0.8	88	-0.9	6	11	247	0.00	1025.198	0	0.000	0
20090312 05:10	0.8	-1.8	0.8	88	-0.9	8	13	270	0.00	1025.232	0	0.000	0
20090312 05:15	0.9	0.9	0.9	88	-0.9	5	10	247	0.00	1025.334	0	0.000	0
20090312 05:20	0.9	-1.2	0.9	88	-0.9	6	16	247	0.00	1025.266	0	0.000	0
20090312 05:25	0.9	-1.1	0.9	88	-0.8	6	11	247	0.00	1025.198	0	0.000	0
20090312 05:30	0.9	0.9	0.9	88	-0.8	5	11	247	0.00	1025.266	0	0.000	0
20090312 05:35	1.0	1.0	1.0	88	-0.8	5	11	247	0.00	1025.232	0	0.000	0
20090312 05:40	1.0	1.0	1.0	88	-0.8	5	8	247	0.00	1025.198	0	0.000	0
20090312 05:45	1.1	1.1	1.1	88	-0.7	5	16	247	0.00	1025.164	0	0.000	0
20090312 05:50	1.1	1.1	1.1	87	-0.9	5	10	247	0.00	1025.164	0	0.000	0
20090312 05:55	1.1	1.1	1.1	87	-0.9	5	10	270	0.00	1025.266	0	0.000	0
20090312 06:00	1.1	-0.9	1.1	87	-0.8	6	18	247	0.00	1025.266	0	0.000	0
20090312 06:05	1.2	-0.8	1.2	87	-0.8	6	14	247	0.00	1025.401	0	0.000	0
20090312 06:10	1.2	-1.4	1.2	87	-0.8	8	14	247	0.00	1025.367	0	0.000	0
20090312 06:15	1.2	-0.8	1.2	87	-0.8	6	10	247	0.00	1025.401	0	0.000	0
20090312 06:20	1.2	-0.8	1.2	87	-0.8	6	14	247	0.00	1025.401	0	0.000	0
20090312 06:25	1.2	-0.8	1.2	86	-0.9	6	14	247	0.00	1025.435	0	0.000	0
20090312 06:30	1.1	1.1	1.1	87	-0.8	5	8	247	0.00	1025.401	0	0.000	0
20090312 06:35	1.2	-0.8	1.2	86	-0.9	6	14	247	0.00	1025.401	0	0.000	0
20090312 06:40	1.2	1.2	1.2	86	-0.9	5	10	247	0.00	1025.469	0	0.000	0
20090312 06:45	1.1	1.1	1.1	86	-1.0	5	11	247	0.00	1025.469	0	0.000	0
20090312 06:50	1.1	1.1	1.1	86	-1.0	5	10	225	0.00	1025.503	2	0.000	0
20090312 06:55	1.2	1.2	1.2	86	-0.9	5	10	247	0.00	1025.503	6	0.000	0
20090312 07:00	1.2	1.2	1.2	86	-0.9	5	11	247	0.00	1025.571	9	0.000	0
20090312 07:05	1.2	1.2	1.2	86	-0.9	5	11	247	0.00	1025.672	11	0.000	0
20090312 07:10	1.2	1.2	1.2	86	-0.9	5	14	247	0.00	1025.740	13	0.000	0
20090312 07:15	1.2	1.2	1.2	86	-0.9	5	10	247	0.00	1025.740	17	0.000	0
20090312 07:20	1.2	1.2	1.2	86	-0.9	5	10	247	0.00	1025.774	21	0.000	0
20090312 07:25	1.2	1.2	1.2	86	-0.9	5	10	247	0.00	1025.774	24	0.000	0
20090312 07:30	1.3	-0.7	1.3	86	-0.8	6	11	247	0.00	1025.808	29	0.000	0
20090312 07:35	1.3	1.3	1.3	86	-0.7	5	10	247	0.00	1025.774	36	0.000	0
20090312 07:40	1.3	1.3	1.3	85	-0.9	5	10	247	0.00	1025.740	44	0.000	0
20090312 07:45	1.3	1.3	1.3	85	-0.9	5	11	247	0.00	1025.774	55	0.000	0
20090312 07:50	1.4	-0.6	1.4	85	-0.9	6	14	247	0.00	1025.740	74	0.000	0
20090312 07:55	1.4	-0.5	1.4	85	-0.8	6	11	247	0.00	1025.808	75	0.000	0
20090312 08:00	1.6	1.6	1.6	85	-0.7	5	16	292	0.00	1025.842	80	0.020	0
20090312 08:05	1.7	1.7	1.7	85	-0.6	5	11	292	0.00	1025.842	96	0.000	0
20090312 08:10	1.7	1.7	1.7	85	-0.5	5	10	247	0.00	1025.808	110	0.000	0
20090312 08:15	1.8	1.8	1.8	84	-0.6	5	10	247	0.00	1025.808	105	0.000	0
20090312 08:20	1.9	0.1	1.9	84	-0.5	6	18	270	0.00	1025.706	108	0.000	0
20090312 08:25	2.0	2.0	2.0	84	-0.4	5	11	247	0.00	1025.774	106	0.000	0
20090312 08:30	2.1	2.1	2.1	83	-0.5	5	14	247	0.00	1025.740	87	0.000	0
20090312 08:35	2.1	0.2	2.1	83	-0.5	6	14	247	0.00	1025.774	94	0.000	0
20090312 08:40	2.1	0.2	2.1	83	-0.5	6	14	247	0.00	1025.808	86	0.000	0
20090312 08:45	2.1	0.2	2.1	83	-0.5	6	18	247	0.00	1025.774	83	0.000	0
20090312 08:50	2.1	2.1	2.1	83	-0.5	5	11	270	0.00	1025.842	76	0.000	0
20090312 08:55	2.1	2.1	2.1	83	-0.5	5	11	247	0.00	1025.842	80	0.000	0
20090312 09:00	2.1	0.2	2.1	82	-0.7	6	13	247	0.00	1025.842	85	0.040	0
20090312 09:05	2.1	0.2	2.1	82	-0.7	6	16	247	0.00	1025.842	92	0.000	0
20090312 09:10	2.1	0.3	2.1	83	-0.5	6	19	247	0.00	1025.909	75	0.000	0
20090312 09:15	2.2	2.2	2.2	83	-0.4	5	10	247	0.00	1025.875	86	0.000	0
20090312 09:20	2.2	0.4	2.2	83	-0.4	6	14	270	0.00	1025.842	135	0.000	1
20090312 09:25	2.3	0.5	2.3	82	-0.4	6	14	247	0.00	1025.808	172	0.000	1
20090312 09:30	2.5	0.7	2.5	82	-0.3	6	16	247	0.00	1025.842	179	0.000	1
20090312 09:35	2.7	0.9	2.7	82	-0.1	6	16	247	0.00	1025.909	191	0.000	1
20090312 09:40	2.8	1.0	2.8	81	-0.2	6	16	247	0.00	1025.842	180	0.000	1
20090312 09:45	2.8	0.6	2.8	81	-0.1	8	14	247	0.00	1025.808	153	0.000	1
20090312 09:50	2.9	0.7	2.9	80	-0.2	8	18	247	0.00	1025.808	178	0.000	1
20090312 09:55	3.1	0.9	3.1	81	0.1	8	16	247	0.00	1025.842	199	0.000	1
20090312 10:00	3.2	1.0	3.2	80	0.1	8	21	247	0.00	1025.638	213	0.060	1
20090312 10:05	3.2	1.0	3.2	80	0.1	8	16	247	0.00	1025.638	213	0.000	1
20090312 10:10	3.4	1.7	3.4	80	0.3	6	19	247	0.00	1025.672	236	0.000	1
20090312 10:15	3.5	1.4	3.5	78	0.0	8	19	247	0.00	1025.604	256	0.000	2
20090312 10:20	3.6	1.0	3.6	79	0.3	10	19	247	0.00	1025.604	250	0.000	2
20090312 10:25	3.8	1.7	3.8	78	0.3	8	18	247	0.00	1025.604	276	0.000	2
20090312 10:30	3.9	1.1	3.9	76	0.1	11	26	270	0.00	1025.638	302	0.000	2
20090312 10:35	4.1	1.6	4.1	76	0.2	10	24	247	0.00	1025.604	310	0.000	2
20090312 10:40	4.3	1.6	4.3	75	0.3	11	19	247	0.00	1025.604	338	0.000	2
20090312 10:45	4.4	2.1	4.4	75	0.4	10	18	247	0.00	1025.571	333	0.000	2
20090312 10:50	4.3	1.9	4.3	75	0.2	10	21	247	0.00	1025.571	259	0.000	2
20090312 10:55	4.2	1.8	4.2	73	-0.2	10	21	247	0.00	1025.503	256	0.000	2
20090312 11:00	4.2	1.8	4.2	73	-0.2	10	18	247	0.00	1025.604	283	0.100	2
20090312 11:05	4.3	2.3	4.3	74	0.1	8	23	270	0.00	1025.774	296	0.000	2
20090312 11:10	4.4	2.0	4.4	73	-0.0	10	23	270	0.00	1025.774	315	0.000	2
20090312 11:15	4.4	1.7	4.4	72	-0.2	11	23	270	0.00	1025.875	346	0.000	2
20090312 11:20	4.6	2.2	4.6	74	0.3	10	19	270	0.00	1025.842	420	0.000	2
20090312 11:25	4.9	3.0	4.9	71	0.1	8	19	247	0.00	1025.706	458	0.000	2
20090312 11:30	5.1	3.3	5.1	71	0.3	8	18	247	0.00	1025.672	454	0.000	2
20090312 11:35	5.2	3.0	5.2	68	-0.2	10	21	247	0.00	1025.638	446	0.000	2
20090312 11:40	5.3	2.7	5.3	68	-0.1	11	24	270	0.00	1025.774	468	0.000	2
20090312 11:45	5.3	2.8	5.3	68	-0.1	11	24	270	0.00	1025.638	389	0.000	2
20090312 11:50	5.3	3.1	5.3	70	0.3	10	21	270	0.00	1025.638	356	0.000	2
20090312 11:55	5.4	2.7	5.4	65	-0.6	13	23	247	0.00	1025.571	364	0.000	2
20090312 12:00	5.3	3.1	5.3	65	-0.8	10	21	270	0.00	1025.571	257	0.140	2
20090312 12:05	5.2	3.0	5.2	66	-0.6	10	23	270	0.00	1025.571	202	0.000	1
20090312 12:10	5.2	2.3	5.2	64	-1.1	13	26	270	0.00	1025.604	187	0.000	1
20090312 12:15	5.1	2.2	5.1	63	-1.3	13	26	247	0.00	1025.604	203	0.000	2
20090312 12:20	5.0	1.8	5.0	63	-1.5	14	29	270	0.00	1025.537	250	0.000	2
20090312 12:25	5.0	2.1	5.0	63	-1.5	13	23	247	0.00	1025.435	332	0.000	2
20090312 12:30	5.2	2.9	5.2	65	-0.9	10	18	247	0.00	1025.401	324	0.000	2
20090312 12:35	5.3	2.2	5.3	62	-1.4	14	27	270	0.00	1025.164	250	0.000	2
20090312 12:40	5.2	2.3	5.2	62	-1.5	13	23	247	0.00	1025.266	204	0.000	1
20090312 12:45	5.1	1.7	5.1	62	-1.6	16	26	247	0.00	1025.232	245	0.000	2
20090312 12:50	5.0	1.6	5.0	61	-1.9	16	31	270	0.00	1025.198	259	0.000	2
20090312 12:55	4.9	1.5	4.9	64	-1.3	16	26	270	0.00	1025.130	193	0.000	1
20090312 13:00	4.8	1.4	4.8	68	-0.6	16	29	247	0.00	1025.266	184	0.100	1
20090312 13:05	4.2	-0.1	4.2	73	-0.2	21	37	270	0.00	1025.367	139	0.000	1
20090312 13:10	3.7	0.2	3.7	77	0.0	14	24	270	0.00	1025.537	150	0.000	1
20090312 13:15	3.3	0.4	3.3	79	0.0	11	21	247	0.00	1025.401	175	0.000	1
20090312 13:20	3.4	0.5	3.4	79	0.1	11	27	270	0.00	1025.266	128	0.000	1
20090312 13:25	3.3	-0.5	3.3	79	-0.0	16	27	270	0.00	1025.266	78	0.000	1
20090312 13:30	3.1	-0.3	3.1	81	0.1	13	27	247	0.00	1025.300	60	0.000	0
20090312 13:35	2.7	-0.4	2.7	83	0.1	11	24	247	0.00	1025.401	111	0.000	1
20090312 13:40	2.3	-1.2	2.3	84	-0.1	13	23	247	0.00	1025.367	111	0.000	1
20090312 13:45	2.1	-1.1	2.1	85	-0.2	11	24	247	0.00	1025.266	120	0.000	1
20090312 13:50	2.2	-0.2	2.2	85	-0.1	8	18	247	0.00	1025.198	132	0.000	1
20090312 13:55	2.3	0.0	2.3	85	0.1	8	18	247	0.00	1025.164	139	0.000	1
20090312 14:00	2.6	-0.2	2.6	83	-0.0	10	23	247	0.00	1025.063	141	0.060	1
20090312 14:05	2.8	0.2	2.8	82	0.1	10	18	247	0.00	1024.961	140	0.000	1
20090312 14:10	3.1	0.9	3.1	81	0.1	8	19	247	0.00	1024.859	122	0.000	1
20090312 14:15	3.1	0.9	3.1	82	0.3	8	18	247	0.00	1024.758	62	0.000	0
20090312 14:20	2.9	0.7	2.9	83	0.3	8	19	247	0.00	1024.792	54	0.000	0
20090312 14:25	2.6	0.3	2.6	84	0.1	8	19	247	0.00	1024.656	122	0.000	1
20090312 14:30	2.4	0.1	2.4	83	-0.1	8	18	247	0.00	1024.555	129	0.000	1
20090312 14:35	2.5	-0.2	2.5	82	-0.3	10	21	247	0.00	1024.385	128	0.000	1
20090312 14:40	2.6	-0.2	2.6	82	-0.2	10	19	247	0.00	1024.250	137	0.000	1
20090312 14:45	2.7	0.0	2.7	81	-0.2	10	21	247	0.00	1024.148	141	0.000	1
20090312 14:50	2.8	-0.2	2.8	80	-0.3	11	21	247	0.00	1024.115	132	0.000	1
20090312 14:55	2.9	1.2	2.9	80	-0.2	6	19	247	0.00	1024.013	123	0.000	1
20090312 15:00	2.8	0.2	2.8	80	-0.3	10	21	247	0.00	1024.013	107	0.040	1
20090312 15:05	2.8	0.1	2.8	81	-0.2	10	19	247	0.00	1023.979	127	0.000	1
20090312 15:10	2.8	0.6	2.8	81	-0.1	8	19	247	0.00	1023.911	133	0.000	1
20090312 15:15	2.8	0.1	2.8	81	-0.2	10	21	247	0.00	1023.945	123	0.000	1
20090312 15:20	2.7	0.5	2.7	82	-0.0	8	32	247	0.00	1023.911	94	0.000	0
20090312 15:25	2.7	-0.0	2.7	82	-0.1	10	23	247	0.00	1023.742	103	0.000	0
20090312 15:30	2.7	-0.0	2.7	81	-0.3	10	26	247	0.00	1023.742	93	0.000	0
20090312 15:35	2.6	-0.5	2.6	82	-0.2	11	31	247	0.00	1023.742	77	0.000	0
20090312 15:40	2.5	-0.2	2.5	83	-0.1	10	24	247	0.00	1023.708	79	0.000	0
20090312 15:45	2.4	-1.0	2.4	84	0.0	13	21	247	0.00	1023.708	76	0.000	0
20090312 15:50	2.4	-0.4	2.4	85	0.1	10	21	247	0.00	1023.674	83	0.000	0
20090312 15:55	2.3	0.0	2.3	86	0.2	8	14	247	0.00	1023.573	81	0.000	0
20090312 16:00	2.3	0.0	2.3	86	0.2	8	21	247	0.00	1023.539	70	0.040	0
20090312 16:05	2.4	0.1	2.4	86	0.3	8	18	247	0.00	1023.505	71	0.000	0
20090312 16:10	2.4	0.1	2.4	86	0.3	8	18	247	0.00	1023.437	74	0.000	0
20090312 16:15	2.4	-0.4	2.4	86	0.3	10	18	247	0.00	1023.471	63	0.000	0
20090312 16:20	2.3	0.0	2.3	86	0.2	8	24	247	0.00	1023.302	42	0.000	0
20090312 16:25	2.2	-0.6	2.2	87	0.2	10	19	247	0.00	1023.234	42	0.000	0
20090312 16:30	2.0	-0.8	2.0	87	0.1	10	21	247	0.00	1023.099	38	0.000	0
20090312 16:35	2.0	-0.4	2.0	88	0.2	8	18	270	0.00	1023.065	35	0.000	0
20090312 16:40	2.0	-0.4	2.0	88	0.2	8	19	247	0.00	1022.895	38	0.000	0
20090312 16:45	2.1	-0.3	2.1	89	0.4	8	23	247	0.00	1022.794	33	0.000	0
20090312 16:50	2.1	-0.7	2.1	88	0.3	10	21	247	0.20	1022.760	32	0.000	0
20090312 16:55	2.1	-1.1	2.1	88	0.3	11	24	247	0.00	1022.692	25	0.000	0
20090312 17:00	2.1	2.1	2.1	89	0.4	5	16	247	0.00	1022.625	24	0.020	0
20090312 17:05	1.9	-0.5	1.9	89	0.3	8	18	225	0.00	1022.455	18	0.000	0
20090312 17:10	1.9	0.0	1.9	89	0.3	6	13	247	0.00	1022.354	17	0.000	0
20090312 17:15	1.8	-0.1	1.8	89	0.2	6	18	247	0.00	1022.252	12	0.000	0
20090312 17:20	1.8	-0.1	1.8	89	0.2	6	19	247	0.00	1022.218	11	0.000	0
20090312 17:25	1.8	-0.1	1.8	89	0.2	6	19	247	0.00	1022.150	11	0.000	0
20090312 17:30	1.8	1.8	1.8	89	0.2	5	11	247	0.00	1022.150	8	0.000	0
20090312 17:35	1.8	-0.1	1.8	89	0.2	6	21	225	0.00	1022.083	7	0.000	0
20090312 17:40	1.7	-0.3	1.7	90	0.2	6	18	225	0.20	1021.981	7	0.000	0
20090312 17:45	1.6	-0.8	1.6	89	-0.0	8	21	202	0.00	1021.981	4	0.000	0
20090312 17:50	1.5	-0.4	1.5	90	0.0	6	19	247	0.20	1022.015	0	0.000	0
20090312 17:55	1.3	-1.2	1.3	90	-0.1	8	24	247	0.20	1022.015	0	0.000	0
20090312 18:00	1.3	-1.2	1.3	90	-0.1	8	23	247	0.00	1022.049	0	0.000	0
20090312 18:05	1.3	-0.7	1.3	91	-0.0	6	16	225	0.20	1021.947	0	0.000	0
20090312 18:10	1.2	-0.8	1.2	91	-0.1	6	16	225	0.00	1021.913	0	0.000	0
20090312 18:15	1.1	-0.9	1.1	91	-0.2	6	14	225	0.00	1021.880	0	0.000	0
20090312 18:20	1.1	-0.9	1.1	91	-0.2	6	16	247	0.20	1021.846	0	0.000	0
20090312 18:25	1.2	-0.8	1.2	92	0.1	6	18	247	0.00	1021.880	0	0.000	0
20090312 18:30	1.3	1.3	1.3	92	0.2	5	16	247	0.00	1021.846	0	0.000	0
20090312 18:35	1.3	1.3	1.3	92	0.2	5	18	247	0.20	1021.846	0	0.000	0
20090312 18:40	1.3	-0.6	1.3	91	0.0	6	14	247	0.00	1021.778	0	0.000	0
20090312 18:45	1.3	-0.6	1.3	91	0.0	6	14	225	0.00	1021.710	0	0.000	0
20090312 18:50	1.3	-0.7	1.3	91	-0.0	6	19	247	0.20	1021.643	0	0.000	0
20090312 18:55	1.3	-0.7	1.3	91	-0.0	6	16	247	0.00	1021.609	0	0.000	0
20090312 19:00	1.3	-1.2	1.3	92	0.2	8	23	247	0.00	1021.575	0	0.000	0
20090312 19:05	1.3	-1.2	1.3	92	0.2	8	21	247	0.00	1021.507	0	0.000	0
20090312 19:10	1.6	-1.4	1.6	92	0.4	10	27	247	0.00	1021.338	0	0.000	0
20090312 19:15	1.7	-0.7	1.7	91	0.4	8	18	247	0.20	1021.270	0	0.000	0
20090312 19:20	1.8	-1.0	1.8	91	0.5	10	23	270	0.00	1021.270	0	0.000	0
20090312 19:25	1.9	-0.5	1.9	91	0.6	8	18	247	0.00	1021.236	0	0.000	0
20090312 19:30	2.0	-0.4	2.0	90	0.5	8	24	247	0.00	1021.067	0	0.000	0
20090312 19:35	2.1	-0.3	2.1	90	0.6	8	23	247	0.00	1021.101	0	0.000	0
20090312 19:40	2.2	-1.0	2.2	90	0.7	11	23	247	0.00	1021.067	0	0.000	0
20090312 19:45	2.2	-0.6	2.2	90	0.8	10	24	247	0.00	1021.067	0	0.000	0
20090312 19:50	2.3	-0.9	2.3	89	0.7	11	23	247	0.00	1021.101	0	0.000	0
20090312 19:55	2.3	-0.5	2.3	90	0.8	10	19	247	0.00	1021.067	0	0.000	0
20090312 20:00	2.3	-0.8	2.3	90	0.9	11	21	247	0.00	1020.999	0	0.000	0
20090312 20:05	2.3	-0.8	2.3	89	0.7	11	24	247	0.00	1020.830	0	0.000	0
20090312 20:10	2.3	-0.8	2.3	90	0.9	11	24	247	0.00	1020.762	0	0.000	0
20090312 20:15	2.3	-0.8	2.3	90	0.9	11	19	247	0.00	1020.762	0	0.000	0
20090312 20:20	2.4	-1.4	2.4	90	0.9	14	35	247	0.20	1020.762	0	0.000	0
20090312 20:25	2.4	-1.4	2.4	90	0.9	14	27	247	0.00	1020.660	0	0.000	0
20090312 20:30	2.4	-0.7	2.4	90	0.9	11	23	247	0.00	1020.694	0	0.000	0
20090312 20:35	2.4	-1.0	2.4	90	1.0	13	26	247	0.00	1020.660	0	0.000	0
20090312 20:40	2.4	-1.3	2.4	90	1.0	14	32	247	0.00	1020.627	0	0.000	0
20090312 20:45	2.5	-0.9	2.5	90	1.0	13	23	247	0.20	1020.593	0	0.000	0
20090312 20:50	2.5	-0.6	2.5	90	1.0	11	29	247	0.00	1020.525	0	0.000	0
20090312 20:55	2.5	-0.9	2.5	90	1.0	13	35	247	0.00	1020.525	0	0.000	0
20090312 21:00	2.5	-0.9	2.5	91	1.2	13	23	247	0.00	1020.525	0	0.000	0
20090312 21:05	2.5	-1.2	2.5	91	1.2	14	26	247	0.00	1020.390	0	0.000	0
20090312 21:10	2.6	-1.2	2.6	91	1.2	14	27	247	0.20	1020.356	0	0.000	0
20090312 21:15	2.7	-1.0	2.7	90	1.2	14	27	247	0.00	1020.288	0	0.000	0
20090312 21:20	2.7	-0.7	2.7	91	1.3	13	31	247	0.00	1020.322	0	0.000	0
20090312 21:25	2.7	-0.7	2.7	90	1.2	13	21	247	0.00	1020.356	0	0.000	0
20090312 21:30	2.8	-0.6	2.8	90	1.3	13	26	247	0.20	1020.322	0	0.000	0
20090312 21:35	2.8	-0.6	2.8	90	1.3	13	29	247	0.00	1020.356	0	0.000	0
20090312 21:40	2.8	-1.2	2.8	90	1.3	16	29	247	0.00	1020.288	0	0.000	0
20090312 21:45	2.8	-0.3	2.8	90	1.3	11	23	247	0.20	1020.288	0	0.000	0
20090312 21:50	2.8	-0.2	2.8	90	1.4	11	24	247	0.00	1020.322	0	0.000	0
20090312 21:55	2.8	-0.2	2.8	90	1.4	11	24	247	0.00	1020.254	0	0.000	0
20090312 22:00	2.9	-0.1	2.9	90	1.4	11	24	247	0.20	1020.254	0	0.000	0
20090312 22:05	2.9	-0.1	2.9	90	1.5	11	23	247	0.00	1020.051	0	0.000	0
20090312 22:10	2.9	0.3	2.9	90	1.5	10	24	247	0.20	1020.051	0	0.000	0
20090312 22:15	3.0	0.4	3.0	90	1.5	10	21	247	0.00	1020.051	0	0.000	0
20090312 22:20	2.9	0.7	2.9	90	1.5	8	19	247	0.20	1019.915	0	0.000	0
20090312 22:25	2.9	0.3	2.9	90	1.5	10	19	247	0.00	1019.949	0	0.000	0
20090312 22:30	2.9	0.3	2.9	90	1.5	10	21	247	0.00	1019.949	0	0.000	0
20090312 22:35	3.0	0.4	3.0	90	1.5	10	24	247	0.20	1019.949	0	0.000	0
20090312 22:40	3.0	0.8	3.0	90	1.5	8	18	247	0.00	1019.915	0	0.000	0
20090312 22:45	3.0	0.4	3.0	90	1.5	10	18	247	0.20	1019.746	0	0.000	0
20090312 22:50	3.1	0.4	3.1	91	1.7	10	18	247	0.20	1019.645	0	0.000	0
20090312 22:55	3.1	0.4	3.1	91	1.7	10	21	247	0.20	1019.645	0	0.000	0
20090312 23:00	3.2	-0.1	3.2	91	1.8	13	19	247	0.00	1019.678	0	0.000	0
20090312 23:05	3.2	0.3	3.2	91	1.9	11	24	247	0.20	1019.543	0	0.000	0
20090312 23:10	3.3	0.0	3.3	90	1.8	13	23	247	0.00	1019.475	0	0.000	0
20090312 23:15	3.3	0.4	3.3	91	2.0	11	24	247	0.20	1019.611	0	0.000	0
20090312 23:20	3.4	0.2	3.4	91	2.1	13	21	247	0.00	1019.509	0	0.000	0
20090312 23:25	3.4	0.5	3.4	91	2.1	11	26	247	0.20	1019.577	0	0.000	0
20090312 23:30	3.4	0.5	3.4	91	2.1	11	26	247	0.20	1019.611	0	0.000	0
20090312 23:35	3.4	0.5	3.4	91	2.1	11	21	247	0.00	1019.543	0	0.000	0
20090312 23:40	3.5	0.3	3.5	91	2.2	13	26	247	0.20	1019.543	0	0.000	0
20090312 23:45	3.5	0.3	3.5	91	2.2	13	23	247	0.20	1019.543	0	0.000	0
20090312 23:50	3.5	0.6	3.5	91	2.2	11	24	247	0.00	1019.509	0	0.000	0
20090312 23:55	3.6	0.7	3.6	91	2.2	11	21	270	0.20	1019.543	0	0.000	0
20090312 24:00	3.5	1.0	3.5	91	2.2	10	18	247	0.20	1019.340	0	0.000	0



Please note the license to use and transfer of this data:
http://creativecommons.org/licenses/by-nc-sa/3.0/deed.en

Bitte beachten sie die Lizenz zur Verwertung und Weitergabe der Daten:
http://creativecommons.org/licenses/by-nc-sa/3.0/deed.de

zurück zur Übersicht der Archivdaten (Monats und Tagesdaten)

Cookies helfen bei der Bereitstellung von Inhalten. Durch die Nutzung dieser Seiten erklärst du dich damit einverstanden, dass Cookies auf deinem Rechner gespeichert werden. Weitere Information